Dongola, Kentucky
Current Conditions -  °F | °C
As of 9:35 PM on Friday 21 Nov 2014 (Local Time) from KLNP Reporting Station
Clear Clear  
Wind Chill: 29°   Ceiling: Unl
Heat Index: 34°   Visibility: 10mi
Dew Point:   Wind: 6mph
Humidity: 35%   Direction: 210°SSW
Pressure: 30.4"   Gusts: NA
Location:  37.1283°N, 82.8498°W
Report Text: KLNP 220235Z AUTO 21005KT 10SM CLR 01/M13 A3040 RMK AO2
Loading
Personal Weather Stations






























Interactive Weather Map New forecast layout! Learn more

10-Day Weather Forecast

Advertisements
Track Severe Weather on mobile